Time;durP1;ratioP1;P1;durP2;ratioP2;P2;SDS_P1;SDS_P2;PMS_P1;PMS_P2;Temp;Humidity;BMP_temperature;BMP_pressure;BME280_temperature;BME280_humidity;BME280_pressure;Samples;Min_cycle;Max_cycle;Signal;HPM_P1;HPM_P2
2021/07/05 00:02:16;;;;;;;16.23;10.63;;;18.20;99.90;;;;;;5264852;27;20112;-64
2021/07/05 00:04:44;;;;;;;17.57;10.70;;;18.20;99.90;;;;;;5266840;27;20115;-64
2021/07/05 00:07:11;;;;;;;17.73;10.13;;;18.20;99.90;;;;;;5264838;27;20129;-64
2021/07/05 00:09:39;;;;;;;18.23;10.40;;;18.30;99.90;;;;;;5265929;27;20122;-64
2021/07/05 00:12:07;;;;;;;15.83;10.53;;;18.20;99.90;;;;;;5266770;27;20152;-64
2021/07/05 00:14:35;;;;;;;15.47;10.83;;;18.20;99.90;;;;;;5266762;27;20483;-64
2021/07/05 00:17:03;;;;;;;17.03;11.70;;;18.30;99.90;;;;;;5267241;27;20481;-64
2021/07/05 00:19:30;;;;;;;16.43;10.50;;;18.20;99.90;;;;;;5266549;27;20110;-63
2021/07/05 00:21:57;;;;;;;16.67;11.30;;;18.20;99.90;;;;;;5266719;27;20494;-63
2021/07/05 00:24:24;;;;;;;17.93;11.20;;;18.20;99.90;;;;;;5266714;27;20114;-64
2021/07/05 00:26:51;;;;;;;16.73;10.90;;;18.20;99.90;;;;;;5266657;27;20432;-64
2021/07/05 00:29:18;;;;;;;16.23;10.50;;;18.20;99.90;;;;;;5266500;27;20156;-64
2021/07/05 00:31:44;;;;;;;16.10;10.80;;;18.20;99.90;;;;;;5266708;27;20119;-64
2021/07/05 00:34:11;;;;;;;14.50;10.87;;;18.20;99.90;;;;;;5267120;27;20130;-64
2021/07/05 00:36:38;;;;;;;16.27;10.63;;;18.20;99.90;;;;;;5266621;27;20140;-64
2021/07/05 00:39:05;;;;;;;16.90;11.07;;;18.20;99.90;;;;;;5266558;27;20118;-64
2021/07/05 00:41:32;;;;;;;15.47;9.97;;;18.20;99.90;;;;;;5266636;27;20156;-64
2021/07/05 00:43:59;;;;;;;16.17;11.23;;;18.20;99.90;;;;;;5267039;27;20138;-64
2021/07/05 00:46:27;;;;;;;14.57;10.67;;;18.10;99.90;;;;;;5263762;27;20514;-64
2021/07/05 00:48:54;;;;;;;15.77;11.30;;;18.10;99.90;;;;;;5266329;27;20437;-64
2021/07/05 00:51:22;;;;;;;16.87;10.97;;;18.10;99.90;;;;;;5266387;27;20123;-63
2021/07/05 00:53:50;;;;;;;16.70;11.47;;;18.10;99.90;;;;;;5264528;27;20138;-63
2021/07/05 00:56:18;;;;;;;18.20;11.80;;;18.10;99.90;;;;;;5266268;27;20405;-63
2021/07/05 00:58:45;;;;;;;23.77;14.50;;;18.00;99.90;;;;;;5266502;27;20158;-63
2021/07/05 01:01:12;;;;;;;21.67;13.20;;;18.00;99.90;;;;;;5266521;27;20107;-63
2021/07/05 01:03:39;;;;;;;25.53;13.67;;;18.00;99.90;;;;;;5266431;27;20133;-63
2021/07/05 01:06:05;;;;;;;24.03;14.47;;;18.00;99.90;;;;;;5264389;27;20148;-63
2021/07/05 01:08:32;;;;;;;33.57;17.33;;;18.00;99.90;;;;;;5266513;27;20141;-63
2021/07/05 01:10:59;;;;;;;30.73;16.10;;;18.00;99.90;;;;;;5266305;27;20518;-63
2021/07/05 01:13:26;;;;;;;29.20;15.67;;;18.00;99.90;;;;;;5266608;27;20160;-63
2021/07/05 01:15:53;;;;;;;33.00;17.13;;;18.00;99.90;;;;;;5264677;27;20440;-63
2021/07/05 01:18:20;;;;;;;34.87;17.77;;;18.10;99.90;;;;;;5266213;27;20119;-63
2021/07/05 01:20:47;;;;;;;35.07;18.40;;;18.10;99.90;;;;;;5266277;27;20344;-64
2021/07/05 01:23:14;;;;;;;37.27;18.67;;;18.20;99.90;;;;;;5266246;27;20149;-63
2021/07/05 01:25:42;;;;;;;27.20;16.87;;;18.00;99.90;;;;;;5266179;27;20313;-63
2021/07/05 01:28:10;;;;;;;31.17;17.17;;;18.10;99.90;;;;;;5264128;27;20361;-64
2021/07/05 01:30:37;;;;;;;36.40;18.47;;;18.20;99.90;;;;;;5266089;27;20159;-63
2021/07/05 01:33:07;;;;;;;34.50;18.70;;;18.20;99.90;;;;;;5265510;27;20122;-63
2021/07/05 01:35:34;;;;;;;35.03;17.90;;;18.10;99.90;;;;;;5266885;27;20114;-64
2021/07/05 01:38:07;;;;;;;31.70;17.17;;;18.10;99.90;;;;;;5266687;27;20426;-63
2021/07/05 01:40:36;;;;;;;33.13;18.80;;;18.10;99.90;;;;;;5266399;27;20115;-63
2021/07/05 01:43:03;;;;;;;28.93;17.23;;;18.20;99.90;;;;;;5266614;27;20417;-64
2021/07/05 01:45:32;;;;;;;28.93;18.10;;;18.20;99.90;;;;;;5265118;27;20157;-63
2021/07/05 01:48:00;;;;;;;26.53;16.70;;;18.30;99.90;;;;;;5266064;27;20142;-63
2021/07/05 01:50:29;;;;;;;27.83;16.37;;;18.30;99.90;;;;;;5266193;27;20156;-63
2021/07/05 01:52:56;;;;;;;23.57;15.57;;;18.40;99.90;;;;;;5266050;27;20254;-63
2021/07/05 01:55:30;;;;;;;25.43;16.10;;;18.40;99.90;;;;;;5266067;27;20154;-63
2021/07/05 01:57:59;;;;;;;26.67;16.33;;;18.30;99.90;;;;;;5266120;27;20148;-63
2021/07/05 02:00:27;;;;;;;23.10;15.10;;;18.40;99.90;;;;;;5265955;27;20433;-63
2021/07/05 02:02:55;;;;;;;25.33;15.37;;;18.40;99.90;;;;;;5266071;27;20114;-63
2021/07/05 02:05:22;;;;;;;26.13;16.17;;;18.30;99.90;;;;;;5265890;27;20107;-63
2021/07/05 02:07:50;;;;;;;25.50;16.33;;;18.20;99.90;;;;;;5265551;27;20119;-63
2021/07/05 02:10:27;;;;;;;24.27;15.73;;;18.30;99.90;;;;;;5266013;27;20119;-64
2021/07/05 02:12:56;;;;;;;26.40;16.70;;;18.20;99.90;;;;;;5266093;27;20122;-65
2021/07/05 02:15:24;;;;;;;25.53;16.57;;;18.20;99.90;;;;;;5265852;27;20119;-63
2021/07/05 02:17:52;;;;;;;27.80;18.13;;;18.30;99.90;;;;;;5265935;27;20129;-63
2021/07/05 02:20:22;;;;;;;23.23;16.53;;;18.40;99.90;;;;;;5265871;27;20119;-63
2021/07/05 02:22:50;;;;;;;27.13;17.27;;;18.40;99.90;;;;;;5262942;27;20115;-63
2021/07/05 02:25:20;;;;;;;26.47;17.23;;;18.40;99.90;;;;;;5265994;27;20115;-63
2021/07/05 02:27:48;;;;;;;24.50;16.60;;;18.30;99.90;;;;;;5265996;27;20159;-64
2021/07/05 02:30:20;;;;;;;24.33;16.47;;;18.30;99.90;;;;;;5266175;27;20331;-62
2021/07/05 02:32:47;;;;;;;25.30;16.27;;;18.30;99.90;;;;;;5265943;27;20518;-62
2021/07/05 02:35:17;;;;;;;28.57;18.33;;;18.30;99.90;;;;;;5265938;27;20110;-62
2021/07/05 02:37:47;;;;;;;30.67;19.70;;;18.40;99.90;;;;;;5265931;27;20141;-63
2021/07/05 02:40:17;;;;;;;28.63;18.73;;;18.40;99.90;;;;;;5265929;27;20115;-62
2021/07/05 02:42:44;;;;;;;26.93;17.90;;;18.40;99.90;;;;;;5265806;27;20125;-64
2021/07/05 02:45:18;;;;;;;30.80;19.37;;;18.40;99.90;;;;;;5265045;27;20183;-64
2021/07/05 02:47:45;;;;;;;28.90;19.13;;;18.40;99.90;;;;;;5263745;27;20129;-64
2021/07/05 02:50:13;;;;;;;27.00;18.27;;;18.40;99.90;;;;;;5265525;27;20170;-64
2021/07/05 02:52:40;;;;;;;26.20;17.73;;;18.50;99.90;;;;;;5265904;27;20199;-64
2021/07/05 02:55:09;;;;;;;26.03;18.17;;;18.50;99.90;;;;;;5265834;27;20114;-64
2021/07/05 02:57:37;;;;;;;25.23;17.93;;;18.50;99.90;;;;;;5264178;27;20114;-62
2021/07/05 03:00:22;;;;;;;25.77;18.13;;;18.40;99.90;;;;;;5265788;27;20153;-63
2021/07/05 03:02:49;;;;;;;26.73;16.77;;;18.40;99.90;;;;;;5265599;27;20457;-64
2021/07/05 03:05:23;;;;;;;25.53;17.00;;;18.40;99.90;;;;;;5265748;27;20133;-62
2021/07/05 03:07:50;;;;;;;24.87;15.63;;;18.40;99.90;;;;;;5265837;27;20271;-63
2021/07/05 03:10:29;;;;;;;24.07;16.07;;;18.40;99.90;;;;;;5265739;27;20156;-63
2021/07/05 03:12:57;;;;;;;22.20;15.67;;;18.30;99.90;;;;;;5266211;27;20126;-62
2021/07/05 03:15:24;;;;;;;21.97;15.37;;;18.40;99.90;;;;;;5265766;27;20122;-63
2021/07/05 03:17:55;;;;;;;22.87;15.73;;;18.40;99.90;;;;;;5266286;27;20124;-63
2021/07/05 03:20:28;;;;;;;24.37;16.77;;;18.40;99.90;;;;;;5266820;27;20161;-63
2021/07/05 03:22:56;;;;;;;21.00;15.10;;;18.30;99.90;;;;;;5267334;27;20153;-62
2021/07/05 03:25:25;;;;;;;24.97;15.43;;;18.30;99.90;;;;;;5266301;27;20448;-62
2021/07/05 03:27:52;;;;;;;23.37;16.60;;;18.30;99.90;;;;;;5267206;27;20356;-62
2021/07/05 03:30:21;;;;;;;23.07;15.57;;;18.40;99.90;;;;;;5266920;27;20161;-62
2021/07/05 03:32:49;;;;;;;23.37;14.57;;;18.40;99.90;;;;;;5264957;27;20405;-63
2021/07/05 03:35:17;;;;;;;21.40;14.73;;;18.40;99.90;;;;;;5266981;27;20145;-63
2021/07/05 03:37:46;;;;;;;19.60;13.83;;;18.50;99.90;;;;;;5265829;27;20485;-63
2021/07/05 03:40:22;;;;;;;19.40;13.67;;;18.50;99.90;;;;;;5267098;27;20157;-63
2021/07/05 03:42:50;;;;;;;20.07;14.00;;;18.60;99.90;;;;;;5265298;27;20197;-63
2021/07/05 03:45:18;;;;;;;21.17;13.70;;;18.50;99.90;;;;;;5265369;27;20480;-63
2021/07/05 03:47:46;;;;;;;21.60;13.73;;;18.50;99.90;;;;;;5265580;27;20110;-63
2021/07/05 03:50:15;;;;;;;19.40;13.00;;;18.60;99.90;;;;;;5267192;27;20111;-63
2021/07/05 03:52:43;;;;;;;20.53;13.17;;;18.50;99.90;;;;;;5266920;27;20310;-63
2021/07/05 03:55:15;;;;;;;18.80;13.37;;;18.60;99.90;;;;;;5264850;27;20146;-62
2021/07/05 03:57:42;;;;;;;20.10;12.87;;;18.70;99.90;;;;;;5267048;27;20114;-64
2021/07/05 04:00:19;;;;;;;17.93;12.63;;;18.80;99.90;;;;;;5266093;27;20384;-63
2021/07/05 04:02:46;;;;;;;18.43;12.83;;;18.80;99.90;;;;;;5266896;27;20114;-64
2021/07/05 04:05:14;;;;;;;19.17;13.37;;;18.80;99.90;;;;;;5266815;27;20110;-64
2021/07/05 04:07:42;;;;;;;18.67;12.83;;;18.80;99.90;;;;;;5266831;27;20165;-64
2021/07/05 04:10:10;;;;;;;20.53;12.90;;;18.90;99.90;;;;;;5266613;27;20107;-63
2021/07/05 04:12:38;;;;;;;18.77;12.90;;;18.90;99.90;;;;;;5267049;27;20111;-63
2021/07/05 04:15:07;;;;;;;18.97;13.47;;;18.80;99.90;;;;;;5264643;27;20493;-63
2021/07/05 04:17:34;;;;;;;18.57;12.87;;;18.90;99.90;;;;;;5266615;27;20134;-64
2021/07/05 04:20:05;;;;;;;20.03;14.47;;;19.00;99.90;;;;;;5265140;27;20111;-63
2021/07/05 04:22:32;;;;;;;20.20;13.43;;;18.90;99.90;;;;;;5266483;27;20131;-63
2021/07/05 04:24:59;;;;;;;20.50;13.57;;;19.00;99.90;;;;;;5264986;27;20137;-63
2021/07/05 04:27:27;;;;;;;19.23;13.80;;;19.00;99.90;;;;;;5262317;27;20122;-64
2021/07/05 04:29:53;;;;;;;22.87;14.60;;;19.00;99.90;;;;;;5266581;27;20119;-64
2021/07/05 04:32:20;;;;;;;22.93;13.70;;;19.00;99.90;;;;;;5266067;27;20146;-63
2021/07/05 04:34:49;;;;;;;20.47;14.00;;;19.00;99.90;;;;;;5266254;27;20342;-63
2021/07/05 04:37:16;;;;;;;22.73;15.17;;;19.00;99.90;;;;;;5264727;27;20110;-64
2021/07/05 04:39:44;;;;;;;23.40;15.40;;;19.10;99.90;;;;;;5266623;27;20166;-64
2021/07/05 04:42:10;;;;;;;22.63;15.63;;;19.00;99.90;;;;;;5264550;27;20266;-63
2021/07/05 04:44:37;;;;;;;22.73;15.40;;;18.90;99.90;;;;;;5266518;27;20418;-64
2021/07/05 04:47:04;;;;;;;24.63;15.60;;;19.00;99.90;;;;;;5266465;27;20131;-63
2021/07/05 04:49:31;;;;;;;23.87;15.93;;;18.80;99.90;;;;;;5266646;27;20437;-64
2021/07/05 04:51:58;;;;;;;26.23;16.63;;;18.90;99.90;;;;;;5266377;27;20494;-62
2021/07/05 04:54:26;;;;;;;25.60;16.33;;;19.00;99.90;;;;;;5266615;27;20452;-62
2021/07/05 04:56:53;;;;;;;22.73;14.90;;;19.00;99.90;;;;;;5266477;27;20106;-63
2021/07/05 04:59:19;;;;;;;23.57;15.63;;;19.10;99.90;;;;;;5266417;27;20114;-63
2021/07/05 05:01:46;;;;;;;22.97;15.50;;;19.10;99.90;;;;;;5266415;27;20114;-62
2021/07/05 05:04:14;;;;;;;22.57;14.33;;;19.00;99.90;;;;;;5266426;27;20114;-63
2021/07/05 05:06:42;;;;;;;22.43;15.23;;;18.90;99.90;;;;;;5267231;27;20157;-63
2021/07/05 05:09:09;;;;;;;20.03;13.90;;;19.00;99.90;;;;;;5266542;27;20111;-63
2021/07/05 05:11:36;;;;;;;24.83;15.90;;;19.10;99.90;;;;;;5266290;27;20127;-63
2021/07/05 05:14:03;;;;;;;23.63;15.27;;;19.20;99.90;;;;;;5266449;27;20111;-63
2021/07/05 05:16:30;;;;;;;21.47;14.30;;;19.10;99.90;;;;;;5266369;27;20110;-63
2021/07/05 05:18:57;;;;;;;21.83;14.83;;;19.00;99.90;;;;;;5265634;27;20110;-64
2021/07/05 05:21:24;;;;;;;21.43;14.13;;;19.10;99.90;;;;;;5266410;27;20154;-64
2021/07/05 05:23:51;;;;;;;23.37;15.17;;;19.10;99.90;;;;;;5266331;27;20179;-64
2021/07/05 05:26:18;;;;;;;22.13;15.43;;;19.10;99.90;;;;;;5266190;27;20119;-64
2021/07/05 05:28:45;;;;;;;23.77;15.77;;;19.00;99.90;;;;;;5266270;27;20152;-63
2021/07/05 05:31:12;;;;;;;22.10;16.03;;;18.90;99.90;;;;;;5266225;27;20138;-63
2021/07/05 05:33:39;;;;;;;27.77;16.60;;;19.00;99.90;;;;;;5266293;27;20359;-66
2021/07/05 05:36:06;;;;;;;23.27;16.30;;;19.00;99.90;;;;;;5266259;27;20114;-63
2021/07/05 05:38:34;;;;;;;23.70;15.97;;;19.00;99.90;;;;;;5266386;27;20168;-62
2021/07/05 05:41:04;;;;;;;23.13;15.50;;;19.20;99.90;;;;;;5266229;27;20149;-63
2021/07/05 05:43:31;;;;;;;21.67;15.80;;;19.10;99.90;;;;;;5264839;27;20141;-63
2021/07/05 05:46:01;;;;;;;23.23;15.57;;;19.30;99.90;;;;;;5264729;27;20147;-63
2021/07/05 05:48:30;;;;;;;21.13;15.20;;;19.30;99.90;;;;;;5266693;27;20115;-63
2021/07/05 05:50:57;;;;;;;18.93;13.53;;;19.40;99.90;;;;;;5266231;27;20437;-63
2021/07/05 05:53:26;;;;;;;19.43;13.57;;;19.50;99.90;;;;;;5265062;27;20168;-63
2021/07/05 05:55:53;;;;;;;21.77;14.93;;;19.50;99.90;;;;;;5265878;27;20111;-62
2021/07/05 05:58:20;;;;;;;19.17;13.37;;;19.50;99.90;;;;;;5266407;27;20111;-62
2021/07/05 06:00:47;;;;;;;31.90;14.40;;;19.40;99.90;;;;;;5264242;27;20432;-62
2021/07/05 06:03:14;;;;;;;19.87;13.73;;;19.30;99.90;;;;;;5266146;27;20362;-63
2021/07/05 06:05:41;;;;;;;20.20;13.93;;;19.20;99.90;;;;;;5263664;27;20374;-63
2021/07/05 06:08:08;;;;;;;19.23;14.70;;;19.40;99.90;;;;;;5266508;27;20111;-64
2021/07/05 06:10:35;;;;;;;20.20;13.40;;;19.60;99.90;;;;;;5266014;27;20121;-62
2021/07/05 06:13:02;;;;;;;20.00;14.70;;;19.80;99.90;;;;;;5264754;27;20213;-63
2021/07/05 06:15:29;;;;;;;18.53;13.27;;;19.90;99.90;;;;;;5265641;27;20157;-63
2021/07/05 06:17:59;;;;;;;17.17;12.50;;;20.00;99.90;;;;;;5265701;27;20115;-62
2021/07/05 06:20:27;;;;;;;17.27;13.17;;;20.00;99.90;;;;;;5264325;27;20111;-63
2021/07/05 06:23:13;;;;;;;19.17;12.40;;;20.10;99.90;;;;;;5265965;27;20111;-63
2021/07/05 06:25:40;;;;;;;17.07;12.43;;;20.30;99.90;;;;;;5263914;27;20412;-63
2021/07/05 06:28:07;;;;;;;16.77;12.60;;;20.50;99.90;;;;;;5265840;27;20168;-63
2021/07/05 06:30:34;;;;;;;21.80;14.17;;;20.90;99.90;;;;;;5265280;27;20174;-71
2021/07/05 06:33:01;;;;;;;32.73;15.97;;;21.10;99.90;;;;;;5263267;27;20506;-70
2021/07/05 06:35:28;;;;;;;24.60;14.43;;;21.30;99.90;;;;;;5263820;27;20154;-71
2021/07/05 06:37:55;;;;;;;21.23;13.73;;;21.20;99.90;;;;;;5263908;27;20115;-70
2021/07/05 06:40:25;;;;;;;17.47;13.40;;;21.30;99.90;;;;;;5263713;27;20166;-70
2021/07/05 06:42:52;;;;;;;18.47;14.47;;;20.90;99.90;;;;;;5265726;27;20184;-71
2021/07/05 06:45:19;;;;;;;18.60;13.40;;;20.80;99.90;;;;;;5264871;27;20186;-71
2021/07/05 06:47:46;;;;;;;16.93;12.63;;;20.90;99.90;;;;;;5263422;27;20114;-71
2021/07/05 06:50:14;;;;;;;16.67;13.00;;;20.90;99.90;;;;;;5263910;27;20115;-71
2021/07/05 06:52:40;;;;;;;18.67;13.80;;;21.30;99.90;;;;;;5263499;27;20402;-71
2021/07/05 06:55:08;;;;;;;19.03;13.67;;;21.60;99.90;;;;;;5264854;27;20110;-71
2021/07/05 06:57:37;;;;;;;21.63;13.87;;;21.80;99.90;;;;;;5265069;27;20150;-71
2021/07/05 07:00:12;;;;;;;17.90;13.47;;;22.10;99.90;;;;;;5265135;27;20115;-71
2021/07/05 07:02:39;;;;;;;21.07;14.60;;;22.20;99.90;;;;;;5264850;27;20179;-71
2021/07/05 07:05:10;;;;;;;18.20;13.90;;;22.00;99.90;;;;;;5264782;27;20121;-70
2021/07/05 07:07:41;;;;;;;18.50;14.27;;;22.10;99.90;;;;;;5265095;27;20115;-71
2021/07/05 07:10:11;;;;;;;17.73;13.40;;;22.20;99.90;;;;;;5265042;27;20421;-71
2021/07/05 07:12:40;;;;;;;20.60;12.90;;;22.20;99.90;;;;;;5265789;27;20118;-71
2021/07/05 07:15:09;;;;;;;22.63;12.60;;;22.40;99.90;;;;;;5266223;27;20408;-71
2021/07/05 07:17:39;;;;;;;269.93;32.80;;;22.60;99.90;;;;;;5265384;27;20130;-72
2021/07/05 07:20:10;;;;;;;17.83;12.37;;;22.80;99.90;;;;;;5267538;27;20130;-71
2021/07/05 07:22:38;;;;;;;29.00;12.17;;;22.50;99.90;;;;;;5264791;27;20422;-71
2021/07/05 07:25:07;;;;;;;19.97;12.93;;;22.70;99.90;;;;;;5264675;27;20145;-71
2021/07/05 07:27:34;;;;;;;17.17;11.77;;;22.70;99.90;;;;;;5265077;27;20343;-70
2021/07/05 07:30:05;;;;;;;14.27;11.17;;;22.80;99.90;;;;;;5265682;27;20372;-70
2021/07/05 07:32:41;;;;;;;14.07;9.93;;;22.50;99.90;;;;;;5265223;27;20158;-70
2021/07/05 07:35:10;;;;;;;14.23;10.33;;;22.50;99.90;;;;;;5264149;27;20192;-72
2021/07/05 07:37:38;;;;;;;13.70;9.97;;;22.60;99.90;;;;;;5261577;27;20161;-71
2021/07/05 07:40:27;;;;;;;11.20;9.00;;;22.60;99.90;;;;;;5263641;27;20184;-71
2021/07/05 07:42:54;;;;;;;12.80;9.37;;;22.70;99.90;;;;;;5264032;27;20241;-73
2021/07/05 07:45:21;;;;;;;14.80;9.83;;;22.90;99.90;;;;;;5263010;27;20177;-73
2021/07/05 07:47:48;;;;;;;14.20;9.07;;;23.10;99.90;;;;;;5264955;27;20162;-73
2021/07/05 07:50:16;;;;;;;12.43;8.47;;;23.30;99.90;;;;;;5264760;27;20115;-73
2021/07/05 07:52:44;;;;;;;13.03;9.50;;;23.50;99.90;;;;;;5264920;27;20197;-73
2021/07/05 07:55:14;;;;;;;14.03;8.30;;;23.70;99.90;;;;;;5263974;27;20110;-73
2021/07/05 07:57:41;;;;;;;14.23;8.50;;;23.90;99.90;;;;;;5264929;27;20110;-72
2021/07/05 08:00:11;;;;;;;10.67;7.73;;;24.10;99.90;;;;;;5266988;27;20118;-73
2021/07/05 08:02:43;;;;;;;11.07;8.50;;;24.10;99.90;;;;;;5266888;27;20347;-72
2021/07/05 08:05:11;;;;;;;11.47;8.63;;;24.20;99.90;;;;;;5264180;27;20141;-73
2021/07/05 08:07:42;;;;;;;11.30;8.67;;;24.20;99.90;;;;;;5245617;27;20114;-73
2021/07/05 08:10:11;;;;;;;12.20;9.03;;;24.10;99.90;;;;;;5266085;27;20114;-72
2021/07/05 08:12:40;;;;;;;12.85;9.00;;;23.70;99.90;;;;;;5263700;27;20173;-73
2021/07/05 08:15:09;;;;;;;15.18;9.00;;;23.40;99.90;;;;;;5265071;27;20138;-74
2021/07/05 08:17:36;;;;;;;12.27;8.50;;;23.20;99.90;;;;;;5266085;27;20158;-74
2021/07/05 08:20:07;;;;;;;12.50;8.77;;;23.50;99.90;;;;;;5266946;27;20491;-74
2021/07/05 08:22:34;;;;;;;12.48;9.18;;;23.90;99.90;;;;;;5265112;27;20157;-73
2021/07/05 08:25:04;;;;;;;11.33;8.40;;;24.00;99.90;;;;;;5265615;27;20118;-73
2021/07/05 08:27:33;;;;;;;11.87;8.50;;;23.80;99.90;;;;;;5264575;27;20170;-73
2021/07/05 08:30:01;;;;;;;11.12;7.82;;;23.90;99.90;;;;;;5264662;27;20114;-73
2021/07/05 08:32:28;;;;;;;10.20;8.05;;;24.80;99.90;;;;;;5265517;27;20139;-73
2021/07/05 08:34:55;;;;;;;9.88;7.40;;;25.50;99.90;;;;;;5262787;27;20122;-72
2021/07/05 08:37:22;;;;;;;17.00;8.40;;;26.20;99.90;;;;;;5263089;27;20159;-73
2021/07/05 08:39:49;;;;;;;8.63;6.57;;;26.80;99.90;;;;;;5263876;27;20127;-71
2021/07/05 08:42:18;;;;;;;9.88;6.68;;;26.70;99.90;;;;;;5265861;27;20127;-73
2021/07/05 08:44:45;;;;;;;9.30;6.00;;;26.50;99.90;;;;;;5264089;27;20110;-72
2021/07/05 08:47:12;;;;;;;10.30;6.85;;;26.30;99.90;;;;;;5266444;27;20145;-73
2021/07/05 08:49:39;;;;;;;8.60;6.30;;;26.50;99.90;;;;;;5264394;27;20115;-71
2021/07/05 08:52:06;;;;;;;13.15;6.50;;;27.30;99.90;;;;;;5264146;27;20137;-74
2021/07/05 08:54:33;;;;;;;8.75;6.37;;;28.00;99.90;;;;;;5264637;27;20138;-73
2021/07/05 08:57:01;;;;;;;8.20;5.93;;;28.10;99.90;;;;;;5262783;27;20130;-72
2021/07/05 08:59:28;;;;;;;10.63;6.53;;;28.30;99.90;;;;;;5264181;27;20157;-72
2021/07/05 09:01:55;;;;;;;9.00;6.28;;;28.10;99.90;;;;;;5263493;27;20163;-72
2021/07/05 09:04:22;;;;;;;8.38;5.95;;;28.00;99.90;;;;;;5265243;27;20115;-72
2021/07/05 09:07:07;;;;;;;8.00;6.35;;;28.10;99.90;;;;;;5263227;27;20115;-72
2021/07/05 09:09:35;;;;;;;8.05;6.68;;;28.10;99.90;;;;;;5262242;27;20115;-72
2021/07/05 09:12:08;;;;;;;10.60;5.85;;;27.60;99.90;;;;;;5264168;27;20130;-73
2021/07/05 09:14:35;;;;;;;11.82;6.70;;;27.50;99.90;;;;;;5265061;27;20110;-71
2021/07/05 09:17:09;;;;;;;14.27;6.12;;;27.80;99.90;;;;;;5262622;27;20158;-72
2021/07/05 09:19:39;;;;;;;10.43;6.97;;;27.80;99.90;;;;;;5263836;27;20114;-73
2021/07/05 09:22:09;;;;;;;14.27;7.00;;;27.70;99.90;;;;;;5264711;27;20122;-72
2021/07/05 09:24:45;;;;;;;8.73;6.40;;;27.60;99.90;;;;;;5261284;27;20134;-72
2021/07/05 09:27:18;;;;;;;18.27;8.50;;;26.70;99.90;;;;;;5222151;27;20188;-72
2021/07/05 09:29:46;;;;;;;11.82;6.60;;;25.70;99.90;;;;;;5263937;27;20171;-73
2021/07/05 09:32:23;;;;;;;8.60;6.43;;;25.80;99.90;;;;;;5262530;27;20176;-72
2021/07/05 09:34:50;;;;;;;12.23;6.95;;;26.00;99.90;;;;;;5264572;27;20167;-72
2021/07/05 09:37:24;;;;;;;12.27;8.00;;;26.20;99.90;;;;;;5262453;27;20137;-73
2021/07/05 09:40:06;;;;;;;10.52;7.70;;;26.60;99.90;;;;;;5263702;27;20110;-73
2021/07/05 09:42:34;;;;;;;10.55;7.05;;;26.90;99.90;;;;;;5264117;27;20460;-72
2021/07/05 09:45:05;;;;;;;8.52;6.75;;;27.30;99.90;;;;;;5262612;27;20217;-72
2021/07/05 09:47:32;;;;;;;8.25;6.60;;;27.00;99.90;;;;;;5266127;27;20145;-71
2021/07/05 09:50:09;;;;;;;8.38;6.32;;;27.40;99.90;;;;;;5263541;27;20115;-73
2021/07/05 09:52:36;;;;;;;20.05;7.72;;;28.00;99.90;;;;;;5264437;27;20460;-67
2021/07/05 09:55:13;;;;;;;18.92;7.18;;;28.70;99.90;;;;;;5263614;27;20118;-67
2021/07/05 09:57:44;;;;;;;21.83;7.35;;;29.20;99.90;;;;;;5263539;27;20183;-67
2021/07/05 10:00:22;;;;;;;25.90;8.75;;;29.60;99.90;;;;;;5263752;27;20111;-67
2021/07/05 10:03:02;;;;;;;14.20;6.32;;;30.10;99.90;;;;;;5266199;27;20150;-65
2021/07/05 10:05:34;;;;;;;15.07;6.70;;;30.20;99.90;;;;;;5265925;27;20206;-66
2021/07/05 10:08:06;;;;;;;12.90;6.70;;;30.40;99.90;;;;;;5264111;27;20114;-66
2021/07/05 10:10:35;;;;;;;39.47;8.98;;;30.10;99.90;;;;;;5264898;27;20111;-66
2021/07/05 10:13:05;;;;;;;12.20;6.07;;;30.20;99.90;;;;;;5264175;27;20342;-66
2021/07/05 10:15:34;;;;;;;12.95;5.70;;;30.40;99.90;;;;;;5243125;27;20157;-66
2021/07/05 10:18:02;;;;;;;22.33;7.62;;;30.30;99.90;;;;;;5265409;27;20114;-65
2021/07/05 10:20:35;;;;;;;18.40;6.85;;;30.30;99.90;;;;;;5263466;27;20145;-65
2021/07/05 10:23:16;;;;;;;25.15;7.18;;;30.20;99.90;;;;;;5265823;27;20156;-66
2021/07/05 10:25:50;;;;;;;13.00;6.32;;;30.20;99.90;;;;;;5265534;27;20110;-65
2021/07/05 10:28:19;;;;;;;17.85;6.72;;;30.00;99.80;;;;;;5263207;27;20154;-65
2021/07/05 10:31:07;;;;;;;13.15;6.72;;;29.80;99.90;;;;;;5265755;27;20239;-66
2021/07/05 10:33:36;;;;;;;10.18;5.53;;;30.00;99.90;;;;;;5264135;27;20467;-66
2021/07/05 10:36:06;;;;;;;18.37;6.53;;;30.20;99.90;;;;;;5262535;27;20148;-66
2021/07/05 10:38:41;;;;;;;11.75;6.53;;;30.50;99.90;;;;;;5259532;27;20137;-65
2021/07/05 10:41:15;;;;;;;7.95;5.85;;;30.60;98.30;;;;;;5262916;27;20320;-66
2021/07/05 10:43:53;;;;;;;9.25;5.65;;;30.10;97.30;;;;;;5261913;27;20493;-66
2021/07/05 10:46:49;;;;;;;15.90;7.62;;;30.20;98.10;;;;;;5261360;27;20161;-66
2021/07/05 10:49:28;;;;;;;101.70;14.65;;;30.70;98.20;;;;;;5261232;27;20178;-65
2021/07/05 10:51:57;;;;;;;43.15;8.68;;;31.10;97.80;;;;;;5262960;27;20340;-65
2021/07/05 10:54:48;;;;;;;51.75;9.40;;;31.80;96.20;;;;;;5263544;27;20115;-64
2021/07/05 10:57:32;;;;;;;27.30;7.62;;;32.30;94.50;;;;;;5244660;27;20182;-65
2021/07/05 11:00:12;;;;;;;10.63;6.37;;;32.30;94.20;;;;;;5265587;27;20393;-65
2021/07/05 11:02:49;;;;;;;155.23;22.30;;;32.50;91.60;;;;;;5265798;27;20134;-65
2021/07/05 11:05:52;;;;;;;61.37;12.07;;;32.10;93.30;;;;;;5263813;27;20114;-64
2021/07/05 11:08:31;;;;;;;94.97;15.50;;;32.00;92.80;;;;;;5265953;27;20115;-65
2021/07/05 11:11:30;;;;;;;76.85;13.68;;;31.80;93.50;;;;;;5265900;27;20123;-65
2021/07/05 11:14:24;;;;;;;19.85;7.43;;;31.60;94.00;;;;;;5266194;27;20118;-65
2021/07/05 11:17:09;;;;;;;15.65;7.12;;;31.40;94.80;;;;;;5265891;27;20114;-65
2021/07/05 11:19:38;;;;;;;33.80;9.65;;;30.50;94.90;;;;;;5266207;27;20156;-64
2021/07/05 11:22:11;;;;;;;29.25;9.43;;;29.70;97.40;;;;;;5265775;27;20178;-64
2021/07/05 11:24:40;;;;;;;13.25;6.78;;;29.30;98.80;;;;;;5265894;27;20377;-65
2021/07/05 11:27:48;;;;;;;9.38;7.37;;;29.00;99.20;;;;;;5265717;27;20111;-66
2021/07/05 11:30:26;;;;;;;12.35;7.22;;;28.80;99.90;;;;;;5265154;27;20142;-65
2021/07/05 11:33:00;;;;;;;10.75;7.20;;;28.50;99.90;;;;;;5266085;27;20170;-64
2021/07/05 11:35:27;;;;;;;11.10;7.10;;;28.30;99.90;;;;;;5265891;27;20328;-65
2021/07/05 11:37:56;;;;;;;10.15;7.22;;;27.90;99.90;;;;;;5264325;27;20110;-65
2021/07/05 11:40:48;;;;;;;12.18;7.37;;;27.70;99.90;;;;;;5266167;27;20114;-65
2021/07/05 11:43:37;;;;;;;10.77;7.10;;;27.60;99.90;;;;;;5267246;27;20114;-65
2021/07/05 11:46:03;;;;;;;11.43;7.32;;;27.50;99.90;;;;;;5265429;27;20205;-63
2021/07/05 11:48:40;;;;;;;14.10;8.38;;;27.40;99.90;;;;;;5266988;27;20115;-62
2021/07/05 11:51:36;;;;;;;23.27;8.48;;;27.30;99.90;;;;;;5265149;27;20133;-64
2021/07/05 11:54:03;;;;;;;9.80;7.15;;;27.40;99.90;;;;;;5263686;27;20174;-64
2021/07/05 11:56:38;;;;;;;11.35;6.80;;;27.60;99.90;;;;;;5266003;27;20142;-63
2021/07/05 11:59:17;;;;;;;12.63;6.68;;;28.10;99.90;;;;;;5267772;27;20138;-64
2021/07/05 12:01:45;;;;;;;9.23;6.25;;;28.60;99.90;;;;;;5265046;27;20110;-64
2021/07/05 12:04:13;;;;;;;9.90;6.40;;;28.80;99.90;;;;;;5267126;27;20162;-63
2021/07/05 12:06:48;;;;;;;9.23;6.40;;;29.10;99.90;;;;;;5267250;27;20142;-63
2021/07/05 12:09:17;;;;;;;9.32;6.57;;;29.10;99.90;;;;;;5267497;27;20183;-63
2021/07/05 12:11:46;;;;;;;9.38;6.43;;;29.20;99.90;;;;;;5267638;27;20110;-63
2021/07/05 12:14:23;;;;;;;10.10;7.40;;;29.30;99.90;;;;;;5266825;27;20133;-63
2021/07/05 12:16:59;;;;;;;12.73;7.20;;;29.20;99.90;;;;;;5266024;27;20107;-62
2021/07/05 12:19:29;;;;;;;9.38;7.03;;;29.10;99.90;;;;;;5267163;27;20113;-64
2021/07/05 12:21:59;;;;;;;9.98;6.62;;;29.10;99.90;;;;;;5264808;27;20156;-63
2021/07/05 12:24:33;;;;;;;8.95;6.72;;;29.20;99.90;;;;;;5266808;27;20190;-62
2021/07/05 12:27:07;;;;;;;11.23;7.95;;;29.70;99.90;;;;;;5264689;27;20148;-63
2021/07/05 12:30:03;;;;;;;9.55;6.45;;;30.00;99.00;;;;;;5267240;27;20152;-63
2021/07/05 12:32:38;;;;;;;10.50;6.62;;;30.50;99.70;;;;;;5266503;27;20122;-63
2021/07/05 12:35:06;;;;;;;9.18;6.70;;;30.90;97.50;;;;;;5266625;27;20138;-63
2021/07/05 12:37:44;;;;;;;8.90;6.60;;;30.90;96.10;;;;;;5265024;27;20126;-63
2021/07/05 12:40:25;;;;;;;7.62;6.35;;;30.80;95.40;;;;;;5266867;27;20164;-63
2021/07/05 12:43:07;;;;;;;8.63;6.60;;;30.70;95.30;;;;;;5265992;27;20145;-63
2021/07/05 12:45:52;;;;;;;9.95;6.40;;;30.60;96.50;;;;;;5265748;27;20134;-64
2021/07/05 12:48:27;;;;;;;7.45;6.00;;;31.00;96.70;;;;;;5266968;27;20497;-64